Time;durP1;ratioP1;P1;durP2;ratioP2;P2;SDS_P1;SDS_P2;PMS_P1;PMS_P2;Temp;Humidity;BMP_temperature;BMP_pressure;BME280_temperature;BME280_humidity;BME280_pressure;Samples;Min_cycle;Max_cycle;Signal;HPM_P1;HPM_P2
2023/06/28 00:04:56;;;;;;;;;;;;;;;17.30;78.68;101790.56;13056804;22;19942;-65
2023/06/28 00:09:58;;;;;;;;;;;;;;;17.28;77.65;101795.09;13057042;22;19925;-65
2023/06/28 00:15:00;;;;;;;;;;;;;;;17.13;78.71;101801.47;13057432;22;19990;-65
2023/06/28 00:20:07;;;;;;;;;;;;;;;17.20;78.73;101789.50;13056426;22;20231;-65
2023/06/28 00:25:09;;;;;;;;;;;;;;;17.36;78.19;101786.63;13056236;22;20017;-65
2023/06/28 00:30:12;;;;;;;;;;;;;;;17.28;78.22;101803.03;13057281;22;19947;-65
2023/06/28 00:35:14;;;;;;;;;;;;;;;16.93;80.25;101803.69;13030032;22;19990;-65
2023/06/28 00:40:16;;;;;;;;;;;;;;;16.98;80.21;101798.94;13056881;22;19918;-65
2023/06/28 00:45:19;;;;;;;;;;;;;;;17.29;79.58;101798.59;13056041;22;19919;-65
2023/06/28 00:50:21;;;;;;;;;;;;;;;16.93;83.00;101816.06;13056796;22;19919;-65
2023/06/28 00:55:23;;;;;;;;;;;;;;;16.71;89.24;101812.22;13055920;22;20340;-65
2023/06/28 01:00:26;;;;;;;;;;;;;;;16.65;91.07;101802.88;13056453;22;19925;-65
2023/06/28 01:05:28;;;;;;;;;;;;;;;16.58;94.49;101806.06;13028785;22;19919;-65
2023/06/28 01:10:31;;;;;;;;;;;;;;;16.36;95.81;101807.47;13055136;22;20243;-65
2023/06/28 01:15:33;;;;;;;;;;;;;;;16.27;94.36;101800.13;13055255;22;19990;-65
2023/06/28 01:20:35;;;;;;;;;;;;;;;16.26;94.94;101809.88;13056056;22;19955;-65
2023/06/28 01:25:38;;;;;;;;;;;;;;;16.30;94.25;101805.22;13055621;22;19979;-65
2023/06/28 01:30:40;;;;;;;;;;;;;;;16.56;93.38;101813.22;13055910;22;19942;-65
2023/06/28 01:35:42;;;;;;;;;;;;;;;16.34;97.55;101814.66;13055067;22;20316;-65
2023/06/28 01:40:45;;;;;;;;;;;;;;;16.23;98.72;101811.88;13055602;22;20002;-65
2023/06/28 01:45:49;;;;;;;;;;;;;;;16.21;100.00;101811.13;13055623;22;19946;-65
2023/06/28 01:50:52;;;;;;;;;;;;;;;16.04;100.00;101809.53;13055583;22;19919;-65
2023/06/28 01:55:54;;;;;;;;;;;;;;;16.13;100.00;101815.09;13027481;22;19969;-65
2023/06/28 02:00:56;;;;;;;;;;;;;;;16.02;100.00;101819.38;13055192;22;20002;-66
2023/06/28 02:05:59;;;;;;;;;;;;;;;15.97;100.00;101819.69;13055157;22;20332;-66
2023/06/28 02:11:01;;;;;;;;;;;;;;;16.29;100.00;101819.38;13054366;22;19982;-66
2023/06/28 02:16:03;;;;;;;;;;;;;;;15.87;100.00;101818.53;13055006;22;19950;-66
2023/06/28 02:21:05;;;;;;;;;;;;;;;15.91;100.00;101817.44;13054837;22;19998;-66
2023/06/28 02:26:08;;;;;;;;;;;;;;;15.66;100.00;101815.47;13053704;22;20395;-65
2023/06/28 02:31:10;;;;;;;;;;;;;;;15.73;100.00;101808.84;13054683;22;19993;-65
2023/06/28 02:36:12;;;;;;;;;;;;;;;15.88;100.00;101805.25;13027468;22;19922;-65
2023/06/28 02:41:15;;;;;;;;;;;;;;;15.92;100.00;101803.25;13027493;22;19923;-65
2023/06/28 02:46:17;;;;;;;;;;;;;;;15.91;100.00;101798.94;13054415;22;19919;-65
2023/06/28 02:51:19;;;;;;;;;;;;;;;15.73;100.00;101799.13;13054288;22;19926;-65
2023/06/28 02:56:23;;;;;;;;;;;;;;;15.64;100.00;101805.00;13054199;22;19981;-65
2023/06/28 03:01:25;;;;;;;;;;;;;;;15.71;100.00;101803.66;13054048;22;19930;-65
2023/06/28 03:06:28;;;;;;;;;;;;;;;15.76;100.00;101804.25;13053231;22;19988;-65
2023/06/28 03:11:30;;;;;;;;;;;;;;;15.84;100.00;101801.13;13026858;22;19985;-65
2023/06/28 03:16:32;;;;;;;;;;;;;;;15.68;100.00;101798.56;13053870;22;19943;-64
2023/06/28 03:21:34;;;;;;;;;;;;;;;15.87;100.00;101792.13;13053656;22;20009;-64
2023/06/28 03:26:37;;;;;;;;;;;;;;;15.89;100.00;101792.91;13052609;22;19926;-64
2023/06/28 03:31:39;;;;;;;;;;;;;;;15.94;100.00;101789.03;13026502;22;20043;-65
2023/06/28 03:36:43;;;;;;;;;;;;;;;16.11;100.00;101787.09;13025242;22;20252;-65
2023/06/28 03:41:59;;;;;;;;;;;;;;;15.97;100.00;101785.34;13052562;22;19919;-65
2023/06/28 03:47:01;;;;;;;;;;;;;;;16.13;100.00;101778.09;13025518;22;20025;-65
2023/06/28 03:52:04;;;;;;;;;;;;;;;15.93;100.00;101781.19;13052515;22;20332;-65
2023/06/28 03:57:06;;;;;;;;;;;;;;;15.75;100.00;101792.00;13052533;22;19925;-64
2023/06/28 04:02:08;;;;;;;;;;;;;;;15.81;100.00;101779.34;13026113;22;19953;-64
2023/06/28 04:07:10;;;;;;;;;;;;;;;15.53;100.00;101781.91;13052438;22;19918;-65
2023/06/28 04:12:13;;;;;;;;;;;;;;;15.98;100.00;101782.59;13052398;22;20290;-65
2023/06/28 04:17:15;;;;;;;;;;;;;;;15.45;100.00;101780.69;13052342;22;19922;-65
2023/06/28 04:22:17;;;;;;;;;;;;;;;15.70;100.00;101780.84;13052987;22;19953;-65
2023/06/28 04:27:20;;;;;;;;;;;;;;;15.46;100.00;101782.38;13052067;22;20403;-65
2023/06/28 04:32:23;;;;;;;;;;;;;;;15.55;100.00;101784.44;13052232;22;20304;-65
2023/06/28 04:37:27;;;;;;;;;;;;;;;15.59;100.00;101781.50;13052052;22;20290;-66
2023/06/28 04:42:29;;;;;;;;;;;;;;;15.83;100.00;101780.09;13052785;22;19998;-66
2023/06/28 04:47:31;;;;;;;;;;;;;;;15.67;100.00;101780.16;13054201;22;20333;-66
2023/06/28 04:52:34;;;;;;;;;;;;;;;15.89;100.00;101782.34;13056779;22;19926;-65
2023/06/28 04:57:36;;;;;;;;;;;;;;;15.93;100.00;101784.69;13056597;22;19997;-64
2023/06/28 05:02:38;;;;;;;;;;;;;;;15.83;100.00;101782.72;13028579;22;20399;-65
2023/06/28 05:07:41;;;;;;;;;;;;;;;15.47;100.00;101792.84;13056432;22;19997;-64
2023/06/28 05:12:43;;;;;;;;;;;;;;;15.63;100.00;101794.53;13055557;22;19972;-64
2023/06/28 05:17:45;;;;;;;;;;;;;;;15.66;100.00;101792.53;13029154;22;19923;-64
2023/06/28 05:22:48;;;;;;;;;;;;;;;15.78;100.00;101786.53;13055997;22;19923;-64
2023/06/28 05:27:51;;;;;;;;;;;;;;;16.04;100.00;101789.28;13055263;22;19926;-65
2023/06/28 05:32:53;;;;;;;;;;;;;;;16.10;100.00;101780.94;13055158;22;20344;-65
2023/06/28 05:37:55;;;;;;;;;;;;;;;15.71;100.00;101773.78;13054996;22;20362;-65
2023/06/28 05:42:58;;;;;;;;;;;;;;;15.67;100.00;101781.03;13055663;22;19997;-65
2023/06/28 05:48:01;;;;;;;;;;;;;;;15.84;100.00;101780.00;13054778;22;20329;-65
2023/06/28 05:53:03;;;;;;;;;;;;;;;15.71;100.00;101781.69;13054633;22;19959;-65
2023/06/28 05:58:05;;;;;;;;;;;;;;;16.15;100.00;101778.00;13055048;22;19930;-65
2023/06/28 06:03:07;;;;;;;;;;;;;;;16.08;100.00;101779.34;13054468;22;20347;-65
2023/06/28 06:08:10;;;;;;;;;;;;;;;16.19;100.00;101779.50;13054398;22;20306;-65
2023/06/28 06:13:12;;;;;;;;;;;;;;;15.98;100.00;101771.19;13055186;22;19985;-65
2023/06/28 06:18:14;;;;;;;;;;;;;;;16.18;100.00;101767.25;13054222;22;19998;-65
2023/06/28 06:23:19;;;;;;;;;;;;;;;16.31;100.00;101769.94;13054792;22;19962;-65
2023/06/28 06:28:22;;;;;;;;;;;;;;;16.31;100.00;101769.94;13053987;22;19964;-65
2023/06/28 06:33:24;;;;;;;;;;;;;;;16.39;100.00;101762.34;13053938;22;19997;-65
2023/06/28 06:38:26;;;;;;;;;;;;;;;16.55;100.00;101761.31;13053809;22;20348;-65
2023/06/28 06:43:28;;;;;;;;;;;;;;;16.29;100.00;101764.75;13054367;22;19919;-65
2023/06/28 06:48:30;;;;;;;;;;;;;;;16.39;100.00;101770.28;13027342;22;19986;-65
2023/06/28 06:53:33;;;;;;;;;;;;;;;16.68;100.00;101770.94;13053527;22;20002;-65
2023/06/28 06:58:36;;;;;;;;;;;;;;;16.69;100.00;101771.78;13054162;22;20009;-65
2023/06/28 07:03:39;;;;;;;;;;;;;;;16.68;100.00;101775.41;13053958;22;19964;-65
2023/06/28 07:08:41;;;;;;;;;;;;;;;16.85;100.00;101779.56;13052790;22;20420;-65
2023/06/28 07:13:44;;;;;;;;;;;;;;;16.63;100.00;101782.78;13053052;22;19997;-65
2023/06/28 07:18:46;;;;;;;;;;;;;;;17.09;100.00;101777.00;13053059;22;19954;-65
2023/06/28 07:23:48;;;;;;;;;;;;;;;17.01;100.00;101782.84;13053597;22;19923;-65
2023/06/28 07:28:51;;;;;;;;;;;;;;;17.09;100.00;101785.78;13052629;22;19994;-65
2023/06/28 07:33:53;;;;;;;;;;;;;;;17.15;100.00;101779.25;13053602;22;19918;-65
2023/06/28 07:38:55;;;;;;;;;;;;;;;17.38;100.00;101772.34;13052703;22;20398;-65
2023/06/28 07:43:57;;;;;;;;;;;;;;;17.41;100.00;101773.91;13052498;22;19972;-65
2023/06/28 07:49:00;;;;;;;;;;;;;;;17.50;100.00;101770.63;13053371;22;19933;-65
2023/06/28 07:54:02;;;;;;;;;;;;;;;17.44;100.00;101768.41;13053364;22;19919;-65
2023/06/28 07:59:05;;;;;;;;;;;;;;;17.53;100.00;101764.25;13053354;22;19918;-65
2023/06/28 08:04:08;;;;;;;;;;;;;;;17.36;100.00;101765.44;13025347;22;19925;-65
2023/06/28 08:09:10;;;;;;;;;;;;;;;17.58;100.00;101776.19;13052689;22;20332;-65
2023/06/28 08:14:12;;;;;;;;;;;;;;;17.72;100.00;101774.34;13053189;22;19970;-66
2023/06/28 08:19:15;;;;;;;;;;;;;;;17.77;100.00;101772.22;13053196;22;19990;-66
2023/06/28 08:24:17;;;;;;;;;;;;;;;18.01;100.00;101783.72;13056792;22;20002;-66
2023/06/28 08:29:19;;;;;;;;;;;;;;;17.90;100.00;101778.34;13056352;22;19925;-66
2023/06/28 08:34:21;;;;;;;;;;;;;;;17.85;100.00;101775.16;13056319;22;19994;-66
2023/06/28 08:39:24;;;;;;;;;;;;;;;18.13;100.00;101779.31;13057084;22;19990;-66
2023/06/28 08:44:26;;;;;;;;;;;;;;;18.16;100.00;101779.09;13056140;22;20327;-66
2023/06/28 08:49:28;;;;;;;;;;;;;;;18.10;100.00;101774.25;13028928;22;19919;-66
2023/06/28 08:54:31;;;;;;;;;;;;;;;18.20;100.00;101782.34;13029579;22;19990;-66
2023/06/28 08:59:33;;;;;;;;;;;;;;;18.47;100.00;101774.13;13029394;22;19942;-66
2023/06/28 09:04:35;;;;;;;;;;;;;;;18.37;100.00;101767.84;13056590;22;19946;-66
2023/06/28 09:09:37;;;;;;;;;;;;;;;18.35;100.00;101764.47;13056366;22;19919;-66
2023/06/28 09:14:40;;;;;;;;;;;;;;;18.41;100.00;101758.72;13029255;22;19919;-66
2023/06/28 09:19:43;;;;;;;;;;;;;;;18.50;100.00;101770.44;13055314;22;19919;-66
2023/06/28 09:24:48;;;;;;;;;;;;;;;18.66;100.00;101770.09;13028097;22;19997;-66
2023/06/28 09:30:02;;;;;;;;;;;;;;;18.65;100.00;101760.47;13055262;22;20002;-66
2023/06/28 09:35:08;;;;;;;;;;;;;;;18.36;100.00;101755.56;13055437;22;19942;-66
2023/06/28 09:40:14;;;;;;;;;;;;;;;18.28;100.00;101765.91;13055079;22;19942;-66
2023/06/28 09:45:22;;;;;;;;;;;;;;;18.67;100.00;101767.31;13028936;22;19922;-66
2023/06/28 09:50:37;;;;;;;;;;;;;;;19.04;100.00;101769.81;13055679;22;19919;-66
2023/06/28 09:55:40;;;;;;;;;;;;;;;19.40;100.00;101765.25;13054715;22;20385;-66
2023/06/28 10:00:43;;;;;;;;;;;;;;;19.25;100.00;101769.97;13055281;22;20002;-66
2023/06/28 10:05:46;;;;;;;;;;;;;;;19.14;100.00;101761.16;13054478;22;20267;-67
2023/06/28 10:10:49;;;;;;;;;;;;;;;19.20;100.00;101760.66;13054459;22;19942;-66
2023/06/28 10:16:13;;;;;;;;;;;;;;;19.33;100.00;101752.56;13027237;22;20009;-66
2023/06/28 10:21:15;;;;;;;;;;;;;;;19.11;100.00;101756.91;13054184;22;19969;-66
2023/06/28 10:26:17;;;;;;;;;;;;;;;19.21;100.00;101759.69;13053822;22;19989;-66
2023/06/28 10:31:20;;;;;;;;;;;;;;;19.51;96.87;101745.78;13054742;22;19986;-66
2023/06/28 10:36:22;;;;;;;;;;;;;;;19.80;96.43;101748.78;13027678;22;19919;-66
2023/06/28 10:41:25;;;;;;;;;;;;;;;20.07;98.50;101746.63;13054485;22;19951;-66
2023/06/28 10:46:27;;;;;;;;;;;;;;;20.48;90.96;101745.84;13053553;22;20268;-66
2023/06/28 10:51:30;;;;;;;;;;;;;;;20.92;86.42;101732.38;13054260;22;19918;-66
2023/06/28 10:56:37;;;;;;;;;;;;;;;21.29;87.00;101726.50;13054243;22;19982;-66
2023/06/28 11:01:48;;;;;;;;;;;;;;;21.87;83.03;101723.09;13050434;22;20332;-66
2023/06/28 11:07:02;;;;;;;;;;;;;;;21.52;81.20;101721.81;13054094;22;19918;-66
2023/06/28 11:12:07;;;;;;;;;;;;;;;21.21;77.51;101711.19;13052513;22;19964;-65
2023/06/28 11:17:13;;;;;;;;;;;;;;;21.70;77.24;101713.97;13026528;22;20329;-66
2023/06/28 11:22:15;;;;;;;;;;;;;;;22.41;78.28;101703.03;13053684;22;20002;-67
2023/06/28 11:27:18;;;;;;;;;;;;;;;23.32;73.07;101697.06;13052703;22;19919;-67
2023/06/28 11:32:31;;;;;;;;;;;;;;;23.54;72.20;101695.81;13024820;22;19926;-67
2023/06/28 11:37:33;;;;;;;;;;;;;;;23.83;71.27;101699.28;13052804;22;20385;-67
2023/06/28 11:42:41;;;;;;;;;;;;;;;23.87;73.49;101708.66;13025588;22;20394;-67
2023/06/28 11:47:43;;;;;;;;;;;;;;;23.38;68.44;101700.97;13052992;22;19919;-67
2023/06/28 11:52:46;;;;;;;;;;;;;;;24.00;67.99;101705.63;13024729;22;19918;-67
2023/06/28 11:57:48;;;;;;;;;;;;;;;23.49;70.22;101707.94;13029011;22;19989;-67
2023/06/28 12:02:50;;;;;;;;;;;;;;;23.41;70.56;101703.34;13059462;22;20003;-67
2023/06/28 12:07:56;;;;;;;;;;;;;;;23.08;70.42;101708.34;13033377;22;19925;-67
2023/06/28 12:12:58;;;;;;;;;;;;;;;22.53;69.95;101710.88;13059169;22;20240;-66
2023/06/28 12:18:00;;;;;;;;;;;;;;;23.58;66.94;101700.84;13057527;22;20239;-67
2023/06/28 12:23:04;;;;;;;;;;;;;;;23.98;66.92;101711.13;13059779;22;19972;-67
2023/06/28 12:28:09;;;;;;;;;;;;;;;24.03;67.40;101705.31;13032253;22;19990;-67
2023/06/28 12:33:11;;;;;;;;;;;;;;;24.17;63.15;101703.91;13060149;22;19989;-67
2023/06/28 12:38:17;;;;;;;;;;;;;;;25.11;65.66;101695.09;13060052;22;19994;-66
2023/06/28 12:43:25;;;;;;;;;;;;;;;25.11;63.69;101695.09;13059144;22;19919;-67
2023/06/28 12:48:28;;;;;;;;;;;;;;;24.54;64.85;101687.59;13032267;22;19923;-66
2023/06/28 12:53:30;;;;;;;;;;;;;;;24.66;63.05;101682.84;13060045;22;19925;-66
2023/06/28 12:58:32;;;;;;;;;;;;;;;24.85;61.35;101677.25;13059980;22;19986;-64
2023/06/28 13:03:35;;;;;;;;;;;;;;;25.01;62.79;101681.81;13058302;22;20407;-66
2023/06/28 13:08:37;;;;;;;;;;;;;;;25.51;62.86;101677.47;13028716;22;20231;-66
2023/06/28 13:13:39;;;;;;;;;;;;;;;25.34;62.75;101678.47;13055650;22;19926;-66
2023/06/28 13:18:41;;;;;;;;;;;;;;;26.13;62.92;101668.97;13054981;22;20394;-66
2023/06/28 13:23:44;;;;;;;;;;;;;;;25.75;59.49;101667.78;13055475;22;19919;-66
2023/06/28 13:28:47;;;;;;;;;;;;;;;25.53;62.17;101670.09;13055290;22;20006;-66
2023/06/28 13:33:49;;;;;;;;;;;;;;;25.80;61.61;101668.09;13028002;22;20410;-66
2023/06/28 13:38:53;;;;;;;;;;;;;;;26.54;61.31;101661.84;13027594;22;20310;-66
2023/06/28 13:43:55;;;;;;;;;;;;;;;25.54;60.24;101661.06;13054408;22;19919;-66
2023/06/28 13:48:58;;;;;;;;;;;;;;;26.09;57.14;101664.09;13027847;22;19922;-66
2023/06/28 13:54:00;;;;;;;;;;;;;;;25.93;59.89;101660.41;13052212;22;19986;-66
2023/06/28 13:59:02;;;;;;;;;;;;;;;25.52;60.44;101656.84;13027755;22;19919;-66
2023/06/28 14:04:05;;;;;;;;;;;;;;;26.44;60.29;101651.28;13055115;22;19941;-66
